Latest Weather Observations for Woomera

IDS60801

Issued at 6:02 pm CST Saturday 1 October 2016 (issued every 30 minutes, with the page automatically refreshed every 10 minutes)

About weather observations | Map of weather stations | Latest weather observations for SA | Other Formats
Station Details ID: 016001 Name: WOOMERA AERODROME Lat: -31.16 Lon: 136.81 Height: 166.6 m
Data from the previous 72 hours. | See also: Recent months at Woomera
Date/Time
CST
Temp
°C
App
Temp
°C
Dew
Point
°C
Rel
Hum
%
Delta-T
°C
Wind Press
QNH
hPa
Press
MSL
hPa
Rain since
9am
mm
Dir  Spd
km/h
Gust
km/h
Spd
kts
Gust
kts
01/06:00pm 26.4 17.0 -10.8 8 14.4 N 33 43 18 23 1002.0 1001.5 0.0
01/05:30pm 27.0 15.6 -12.3 7 14.9 N 43 54 23 29 1001.5 1001.0 0.0
01/05:00pm 27.3 15.8 -10.9 7 14.8 N 44 57 24 31 1001.8 1001.3 0.0
01/04:30pm 27.7 17.2 -10.8 7 15.1 N 39 50 21 27 1002.2 1001.7 0.0
01/04:00pm 27.7 17.5 -11.7 7 15.1 N 37 52 20 28 1002.7 1002.2 0.0
01/03:30pm 27.6 17.7 -12.2 6 15.2 N 35 46 19 25 1003.3 1002.8 0.0
01/03:00pm 27.5 17.7 -11.0 7 15.0 N 35 52 19 28 1003.9 1003.4 0.0
01/02:30pm 27.4 18.0 -10.6 7 14.9 NNW 33 48 18 26 1004.3 1003.9 0.0
01/02:00pm 27.0 17.4 -8.6 9 14.3 N 35 48 19 26 1005.1 1004.6 0.0
01/01:49pm 27.3 17.7 -8.1 9 14.4 N 35 56 19 30 1005.3 1004.8 0.0
01/01:30pm 26.9 17.4 -7.0 10 14.1 N 35 48 19 26 1005.7 1005.2 0.0
01/01:19pm 26.2 16.7 -7.5 10 13.7 N 35 54 19 29 1005.7 1005.2 0.0
01/01:00pm 25.3 16.0 -5.6 12 12.9 N 35 50 19 27 1006.3 1005.8 0.0
01/12:30pm 24.6 15.8 -4.4 14 12.4 N 33 48 18 26 1006.9 1006.4 0.0
01/12:00pm 23.9 14.8 -3.3 16 11.8 N 35 48 19 26 1007.5 1007.0 0.0
01/11:38am 22.9 13.5 -3.0 17 11.2 N 37 56 20 30 1007.9 1007.4 0.0
01/11:30am 22.8 13.0 -3.3 17 11.2 N 39 50 21 27 1008.0 1007.5 0.0
01/11:00am 21.2 12.7 -1.7 21 10.0 N 33 41 18 22 1008.7 1008.2 0.0
01/10:30am 20.2 11.9 -1.4 23 9.4 N 32 43 17 23 1009.2 1008.7 0.0
01/10:00am 19.3 11.2 -0.5 26 8.7 N 32 41 17 22 1009.4 1009.0 0.0
01/09:30am 17.7 10.2 0.9 32 7.5 N 30 39 16 21 1009.7 1009.3 0.0
01/09:00am 16.1 9.1 1.8 38 6.4 N 28 33 15 18 1009.9 1009.7 0.0
01/08:30am 14.3 8.3 3.1 47 5.1 NNE 24 32 13 17 1010.1 1009.9 0.0
01/08:00am 12.5 6.5 3.4 54 4.1 NE 24 28 13 15 1010.2 1010.0 0.0
01/07:30am 11.0 6.4 3.6 60 3.3 NE 17 20 9 11 1010.0 1009.8 0.0
01/07:00am 8.8 5.0 3.8 71 2.2 NE 13 17 7 9 1009.7 1009.5 0.0
01/06:30am 6.5 1.8 3.2 79 1.4 NE 17 17 9 9 1009.6 1009.4 0.0
01/06:00am 5.7 1.7 2.8 81 1.2 ENE 13 13 7 7 1009.5 1009.3 0.0
01/05:30am 6.2 2.2 3.1 80 1.3 ENE 13 15 7 8 1009.4 1009.2 0.0
01/05:00am 6.6 3.0 2.8 77 1.6 ENE 11 13 6 7 1009.4 1009.2 0.0
01/04:30am 6.4 3.2 2.8 78 1.5 ENE 9 11 5 6 1009.2 1009.0 0.0
01/04:00am 6.6 3.4 2.8 77 1.6 ESE 9 11 5 6 1009.2 1009.0 0.0
01/03:30am 7.8 5.0 2.9 71 2.1 E 7 9 4 5 1009.3 1009.1 0.0
01/03:00am 8.0 5.5 3.6 74 1.9 SE 6 6 3 3 1009.6 1009.4 0.0
01/02:30am 8.7 6.1 3.2 68 2.4 SE 6 6 3 3 1009.8 1009.6 0.0
01/02:00am 9.2 6.7 3.5 67 2.5 SE 6 7 3 4 1009.6 1009.4 0.0
01/01:30am 9.0 5.8 3.0 66 2.6 SSE 9 9 5 5 1009.6 1009.4 0.0
01/01:00am 8.8 6.9 3.0 67 2.5 ESE 2 7 1 4 1009.8 1009.6 0.0
01/12:30am 8.8 5.6 3.0 67 2.5 S 9 11 5 6 1010.0 1009.8 0.0
01/12:00am 9.2 5.6 3.0 65 2.7 SSW 11 11 6 6 1010.2 1010.0 0.0
 
Date/Time
CST
Temp
°C
App
Temp
°C
Dew
Point
°C
Rel
Hum
%
Delta-T
°C
Wind Press
QNH
hPa
Press
MSL
hPa
Rain since
9am
mm
Dir  Spd
km/h
Gust
km/h
Spd
kts
Gust
kts
30/11:30pm 9.5 6.3 2.8 63 2.9 SSW 9 11 5 6 1010.3 1010.1 0.0
30/11:00pm 10.2 7.3 2.6 59 3.3 WSW 7 9 4 5 1010.4 1010.2 0.0
30/10:30pm 10.5 7.2 2.4 57 3.5 SW 9 13 5 7 1010.5 1010.3 0.0
30/10:00pm 10.8 7.5 2.5 56 3.6 WSW 9 9 5 5 1010.3 1010.1 0.0
30/09:30pm 11.1 8.2 2.6 56 3.7 WSW 7 9 4 5 1010.2 1010.0 0.0
30/09:00pm 11.8 8.9 2.4 52 4.1 WSW 7 9 4 5 1010.1 1009.9 0.0
30/08:30pm 11.7 8.0 2.3 52 4.1 WSW 11 11 6 6 1010.1 1009.9 0.0
30/08:00pm 12.6 8.9 2.1 49 4.6 W 11 15 6 8 1009.9 1009.7 0.0
30/07:30pm 13.5 8.6 1.9 45 5.1 WSW 17 19 9 10 1009.4 1009.2 0.0
30/07:00pm 14.4 8.8 1.4 41 5.7 W 20 24 11 13 1009.4 1009.2 0.0
30/06:30pm 15.2 9.3 1.4 39 6.1 W 22 28 12 15 1009.1 1008.9 0.0
30/06:00pm 16.1 10.1 0.9 35 6.7 W 22 30 12 16 1008.7 1008.5 0.0
30/05:30pm 16.9 10.0 0.2 32 7.3 W 26 33 14 18 1008.9 1008.7 0.0
30/05:00pm 17.2 11.6 1.0 33 7.2 WSW 20 32 11 17 1008.4 1008.2 0.0
30/04:30pm 18.0 11.9 0.4 30 7.8 W 22 35 12 19 1008.4 1008.2 0.0
30/04:00pm 18.1 11.7 0.9 31 7.7 W 24 33 13 18 1008.3 1008.1 0.0
30/03:30pm 17.8 11.7 0.7 31 7.6 WNW 22 35 12 19 1008.4 1008.2 0.0
30/03:00pm 18.3 11.5 0.9 31 7.8 W 26 39 14 21 1008.6 1008.4 0.0
30/02:30pm 18.5 12.9 1.3 31 7.8 W 20 33 11 18 1008.9 1008.7 0.0
30/02:00pm 17.2 10.5 1.4 34 7.1 WSW 26 39 14 21 1009.4 1009.2 0.0
30/01:30pm 16.9 10.2 1.5 35 6.9 WSW 26 41 14 22 1009.8 1009.6 0.0
30/01:00pm 17.0 10.4 2.0 36 6.8 WSW 26 37 14 20 1010.2 1010.0 0.0
30/12:30pm 16.3 8.3 1.8 37 6.5 WSW 33 44 18 24 1010.3 1010.1 0.0
30/12:17pm 16.9 9.1 1.8 36 6.8 WSW 32 50 17 27 1010.5 1010.3 0.0
30/12:00pm 16.3 8.3 1.8 37 6.5 WSW 33 46 18 25 1010.7 1010.5 0.0
30/11:30am 15.6 7.7 2.0 40 6.1 WSW 33 52 18 28 1010.7 1010.5 0.0
30/11:28am 15.2 7.2 1.7 40 6.0 WSW 33 52 18 28 1010.7 1010.5 0.0
30/11:00am 14.9 5.8 1.8 41 5.8 WSW 39 54 21 29 1010.9 1010.7 0.0
30/10:48am 14.9 6.6 2.1 42 5.7 WSW 35 54 19 29 1010.9 1010.7 0.0
30/10:30am 14.4 4.9 2.0 43 5.5 WSW 41 54 22 29 1011.0 1010.8 0.0
30/10:00am 14.3 4.9 2.5 45 5.3 WSW 41 52 22 28 1010.8 1010.6 0.0
30/09:37am 13.3 3.9 2.5 48 4.8 WSW 41 61 22 33 1010.7 1010.5 0.0
30/09:30am 13.0 3.2 2.4 48 4.7 WSW 43 52 23 28 1010.8 1010.6 0.0
30/09:00am 12.2 2.9 3.0 53 4.1 WSW 41 52 22 28 1010.7 1010.5 0.0
30/08:30am 11.3 2.0 3.2 57 3.6 WSW 41 50 22 27 1010.5 1010.3 0.0
30/08:00am 10.4 2.0 3.6 63 3.0 WSW 37 48 20 26 1010.4 1010.2 0.0
30/07:30am 9.1 1.6 3.6 68 2.4 W 32 43 17 23 1009.9 1009.7 0.0
30/07:00am 7.9 0.9 4.0 76 1.7 W 30 39 16 21 1009.5 1009.3 0.0
30/06:30am 6.8 1.7 4.0 82 1.2 W 20 24 11 13 1009.1 1008.9 0.0
30/06:00am 6.8 0.8 3.5 79 1.4 W 24 30 13 16 1008.7 1008.5 0.0
30/05:30am 6.8 0.7 3.0 77 1.6 W 24 30 13 16 1008.5 1008.3 0.0
30/05:00am 7.0 1.3 3.0 76 1.7 W 22 28 12 15 1008.1 1007.9 0.0
30/04:30am 7.1 1.1 3.1 76 1.7 W 24 32 13 17 1007.8 1007.5 0.0
30/04:00am 7.1 1.1 3.1 76 1.7 WSW 24 32 13 17 1007.7 1007.4 0.0
30/03:30am 7.3 0.1 3.1 75 1.8 W 30 39 16 21 1007.7 1007.4 0.0
30/03:00am 7.5 0.4 3.3 75 1.8 W 30 37 16 20 1007.6 1007.3 0.0
30/02:30am 7.6 1.1 2.9 72 2.0 W 26 33 14 18 1007.6 1007.3 0.0
30/02:00am 7.9 0.1 2.7 69 2.2 WSW 33 43 18 23 1007.5 1007.2 0.0
30/01:30am 8.1 -0.4 3.0 70 2.2 W 37 50 20 27 1007.6 1007.3 0.0
30/01:00am 8.8 -0.3 1.9 62 2.9 WSW 39 50 21 27 1008.0 1007.7 0.0
30/12:30am 8.9 -0.2 1.8 61 3.0 WSW 39 50 21 27 1008.4 1008.2 0.0
30/12:00am 8.8 0.0 1.6 60 3.0 W 37 50 20 27 1008.3 1008.1 0.0
 
Date/Time
CST
Temp
°C
App
Temp
°C
Dew
Point
°C
Rel
Hum
%
Delta-T
°C
Wind Press
QNH
hPa
Press
MSL
hPa
Rain since
9am
mm
Dir  Spd
km/h
Gust
km/h
Spd
kts
Gust
kts
29/11:30pm 8.7 -0.1 1.5 60 3.0 W 37 48 20 26 1008.2 1008.0 0.0
29/11:00pm 8.9 0.2 2.0 62 2.9 W 37 50 20 27 1008.3 1008.1 0.0
29/10:30pm 9.0 -0.1 1.9 61 3.0 W 39 50 21 27 1008.4 1008.2 0.0
29/10:00pm 9.3 0.6 1.7 59 3.2 W 37 50 20 27 1008.4 1008.2 0.0
29/09:30pm 9.9 1.0 1.0 54 3.7 WSW 37 54 20 29 1008.4 1008.2 0.0
29/09:06pm 9.9 -0.7 0.7 53 3.8 WSW 46 65 25 35 1008.2 1008.0 0.0
29/09:00pm 10.0 -1.0 0.5 51 3.9 WSW 48 65 26 35 1008.0 1007.7 0.0
29/08:58pm 10.1 -0.9 0.4 51 4.0 WSW 48 65 26 35 1007.9 1007.6 0.0
29/08:39pm 10.0 1.9 0.9 53 3.8 WSW 33 52 18 28 1007.9 1007.6 0.0
29/08:30pm 9.9 1.1 1.3 55 3.6 WSW 37 50 20 27 1007.8 1007.5 0.0
29/08:04pm 10.4 -0.2 0.5 50 4.1 WSW 46 69 25 37 1007.4 1007.1 0.0
29/08:00pm 10.4 -0.2 0.8 51 4.0 WSW 46 63 25 34 1007.3 1007.0 0.0
29/07:30pm 10.5 -1.3 0.3 49 4.2 WSW 52 70 28 38 1006.6 1006.3 0.0
29/07:05pm 11.4 0.6 -0.3 44 4.8 W 46 65 25 35 1006.0 1005.7 0.0
29/07:00pm 11.4 0.6 -0.6 43 4.9 W 46 61 25 33 1005.9 1005.6 0.0
29/06:34pm 11.5 0.4 -0.1 44 4.8 WSW 48 69 26 37 1005.5 1005.2 0.0
29/06:30pm 11.5 0.9 0.5 46 4.6 WSW 46 61 25 33 1005.5 1005.2 0.0
29/06:00pm 12.1 0.5 -0.5 42 5.2 WSW 50 69 27 37 1005.2 1004.9 0.0
29/05:30pm 12.6 0.3 -0.1 41 5.3 WSW 54 72 29 39 1004.6 1004.4 0.0
29/05:00pm 13.1 -1.3 -0.3 39 5.6 WSW 65 85 35 46 1004.1 1003.9 0.0
29/04:48pm 13.6 0.2 -1.6 35 6.2 WSW 59 78 32 42 1003.9 1003.7 0.0
29/04:30pm 13.0 -0.5 0.5 42 5.3 WSW 61 76 33 41 1003.8 1003.6 0.0
29/04:07pm 13.7 -0.1 1.0 42 5.5 WSW 63 82 34 44 1003.5 1003.3 0.0
29/04:00pm 13.6 -1.4 0.5 40 5.6 WSW 69 83 37 45 1003.4 1003.2 0.0
29/03:30pm 14.3 1.2 0.6 39 5.9 W 59 82 32 44 1003.0 1002.8 0.0
29/03:00pm 14.4 0.5 0.5 38 6.0 W 63 82 34 44 1002.6 1002.3 0.0
29/02:33pm 13.4 1.1 3.3 50 4.6 W 57 76 31 41 1002.6 1002.3 0.0
29/02:30pm 13.6 0.8 2.7 47 4.9 W 59 76 32 41 1002.6 1002.3 0.0
29/02:00pm 14.6 0.3 0.1 37 6.2 W 65 83 35 45 1002.3 1002.0 0.0
29/01:30pm 14.4 0.7 1.4 41 5.7 W 63 82 34 44 1002.4 1002.1 0.0
29/01:00pm 13.5 -0.3 3.1 49 4.7 W 65 83 35 45 1002.5 1002.2 0.0
29/12:32pm 14.1 1.1 1.3 41 5.6 W 59 78 32 42 1002.3 1002.0 0.0
29/12:30pm 14.0 0.7 1.5 42 5.5 W 61 78 33 42 1002.3 1002.0 0.0
29/12:00pm 13.3 -1.3 0.7 42 5.4 W 67 89 36 48 1002.3 1002.0 0.0
29/11:30am 13.4 -1.6 0.5 41 5.5 W 69 91 37 49 1002.3 1002.0 0.0
29/11:00am 12.1 -2.3 2.0 50 4.4 W 67 85 36 46 1002.3 1002.0 0.0
29/10:30am 11.9 -1.8 1.4 48 4.5 W 63 83 34 45 1002.2 1001.9 0.0
29/10:00am 12.1 -2.8 1.1 47 4.7 W 69 91 37 49 1001.7 1001.4 0.0
29/09:30am 11.3 -3.6 1.2 50 4.3 W 69 87 37 47 1001.8 1001.5 0.0
29/09:08am 10.8 -1.8 1.4 52 4.0 W 57 78 31 42 1001.7 1001.4 0.0
29/09:00am 10.2 -2.4 1.5 55 3.7 W 57 74 31 40 1001.7 1001.4 0.8
29/08:30am 9.7 -2.9 1.4 56 3.5 W 57 76 31 41 1001.6 1001.3 0.8
29/08:04am 9.2 -3.4 1.3 58 3.3 W 57 76 31 41 1001.4 1001.1 0.8
29/08:00am 9.2 -3.8 1.0 56 3.4 WNW 59 76 32 41 1001.4 1001.1 0.8
29/07:30am 8.8 -3.3 1.1 58 3.2 WNW 54 78 29 42 1001.1 1000.8 0.8
29/07:00am 8.4 -3.7 1.1 60 3.0 WNW 54 74 29 40 1000.8 1000.5 0.8
29/06:33am 8.3 -2.7 1.0 60 3.0 WNW 48 67 26 36 1000.5 1000.2 0.8
29/06:30am 8.2 -3.1 1.2 61 2.9 WNW 50 67 27 36 1000.5 1000.2 0.8
29/06:02am 8.2 -3.2 0.6 59 3.1 WNW 50 69 27 37 1000.2 999.9 0.8
29/06:00am 8.2 -2.8 0.6 59 3.1 WNW 48 65 26 35 1000.1 999.8 0.8
29/05:36am 8.2 -3.6 0.6 59 3.1 WNW 52 70 28 38 1000.1 999.8 0.8
29/05:30am 8.2 -3.6 0.6 59 3.1 WNW 52 65 28 35 1000.0 999.7 0.8
29/05:07am 8.2 -2.4 0.6 59 3.1 WNW 46 65 25 35 999.8 999.5 0.8
29/05:00am 8.2 -3.5 0.9 60 3.0 WNW 52 65 28 35 999.8 999.5 0.8
29/04:30am 8.3 -2.7 1.0 60 3.0 WNW 48 69 26 37 999.7 999.4 0.8
29/04:00am 8.5 -3.6 0.7 58 3.2 WNW 54 80 29 43 999.7 999.4 0.8
29/03:30am 8.3 -4.2 1.0 60 3.0 WNW 56 76 30 41 999.8 999.5 0.8
29/03:00am 8.2 -3.6 0.6 59 3.1 WNW 52 70 28 38 999.9 999.6 0.8
29/02:30am 8.3 -3.1 0.7 59 3.1 WNW 50 72 27 39 1000.1 999.8 0.8
29/02:00am 8.5 -3.6 1.0 59 3.1 WNW 54 74 29 40 1000.6 1000.3 0.8
29/01:30am 8.7 -1.9 0.9 58 3.2 WNW 46 65 25 35 1001.1 1000.8 0.8
29/01:00am 9.2 -2.9 0.7 55 3.5 W 54 82 29 44 1001.7 1001.4 0.8
29/12:30am 9.1 -2.6 0.9 56 3.4 WNW 52 74 28 40 1001.7 1001.4 0.8
29/12:00am 9.5 -2.2 0.8 54 3.6 WNW 52 70 28 38 1001.8 1001.5 0.8
 
Date/Time
CST
Temp
°C
App
Temp
°C
Dew
Point
°C
Rel
Hum
%
Delta-T
°C
Wind Press
QNH
hPa
Press
MSL
hPa
Rain since
9am
mm
Dir  Spd
km/h
Gust
km/h
Spd
kts
Gust
kts
28/11:30pm 9.4 -2.0 0.7 54 3.6 WNW 50 69 27 37 1001.9 1001.6 0.8
28/11:12pm 9.3 -2.0 1.1 56 3.4 WNW 50 69 27 37 1001.9 1001.6 0.8
28/11:00pm 9.3 -2.0 1.1 56 3.4 WNW 50 67 27 36 1001.8 1001.5 0.8
28/10:39pm 9.2 -0.9 1.3 58 3.3 WNW 44 63 24 34 1001.9 1001.6 0.8
28/10:30pm 9.3 -1.6 1.1 56 3.4 WNW 48 63 26 34 1002.1 1001.8 0.8
28/10:04pm 9.5 -0.7 1.1 56 3.5 WNW 44 65 24 35 1002.3 1002.0 0.8
28/10:00pm 9.5 -0.4 1.4 57 3.4 WNW 43 57 23 31 1002.4 1002.1 0.8
28/09:32pm 10.1 0.0 0.1 50 4.1 WNW 43 63 23 34 1002.4 1002.1 0.8
28/09:30pm 10.1 0.0 0.1 50 4.1 WNW 43 56 23 30 1002.5 1002.2 0.8
28/09:00pm 10.2 0.5 0.6 51 4.0 W 41 56 22 30 1002.3 1002.0 0.8
28/08:46pm 10.4 -1.1 -0.1 48 4.3 W 50 69 27 37 1002.6 1002.3 0.8
28/08:45pm 10.4 -0.7 0.2 49 4.2 W 48 65 26 35 1002.6 1002.3 0.8
28/08:30pm 10.0 -1.1 4.5 68 2.5 W 52 74 28 40 1003.1 1002.9 0.8
28/08:26pm 10.0 -0.6 5.0 71 2.3 W 50 74 27 40 1003.1 1002.9 0.8
28/08:00pm 11.3 -0.4 1.2 50 4.3 W 52 70 28 38 1002.4 1002.1 0.8
28/07:30pm 12.6 -0.8 -1.4 38 5.7 W 59 80 32 43 1001.5 1001.2 0.8
28/07:04pm 13.1 -1.1 -1.7 36 6.0 W 63 82 34 44 1000.8 1000.5 0.8
28/07:00pm 13.2 -0.6 -1.9 35 6.1 W 61 80 33 43 1000.7 1000.4 0.8
28/06:45pm 13.5 -1.9 -1.0 36 6.0 W 70 95 38 51 1000.5 1000.2 0.8
28/06:30pm 15.1 0.4 -2.6 29 7.2 W 65 91 35 49 999.9 999.6 0.8

Other Formats:

Comma delimited format used in spreadsheet applications
http://www.bom.gov.au/fwo/IDS60801/IDS60801.94659.axf

JavaScript Object Notation format (JSON) in row-major order
http://www.bom.gov.au/fwo/IDS60801/IDS60801.94659.json